Time;durP1;ratioP1;P1;durP2;ratioP2;P2;SDS_P1;SDS_P2;PMS_P1;PMS_P2;Temp;Humidity;BMP_temperature;BMP_pressure;BME280_temperature;BME280_humidity;BME280_pressure;Samples;Min_cycle;Max_cycle;Signal;HPM_P1;HPM_P2
2021/04/15 00:02:00;;;;;;;8.57;5.13;;;;;;;0.82;95.66;102576.00;5045167;28;20071;-84
2021/04/15 00:04:27;;;;;;;8.27;5.50;;;;;;;0.82;95.69;102575.13;5038340;28;20052;-84
2021/04/15 00:06:52;;;;;;;8.48;5.97;;;;;;;0.80;95.48;102582.25;5032211;28;20041;-83
2021/04/15 00:09:22;;;;;;;7.72;5.95;;;;;;;0.76;95.65;102584.16;5030996;28;20041;-83
2021/04/15 00:11:49;;;;;;;7.45;4.60;;;;;;;0.79;96.35;102575.25;5032150;28;20095;-83
2021/04/15 00:14:21;;;;;;;8.25;4.90;;;;;;;0.76;95.93;102570.94;5030360;28;20033;-81
2021/04/15 00:16:47;;;;;;;8.52;4.95;;;;;;;0.80;95.42;102582.25;5034276;28;20040;-83
2021/04/15 00:19:18;;;;;;;10.85;5.35;;;;;;;0.76;95.33;102567.44;5032791;28;20045;-79
2021/04/15 00:21:43;;;;;;;8.80;5.80;;;;;;;0.70;95.48;102573.81;5045261;28;20052;-84
2021/04/15 00:24:08;;;;;;;9.23;6.00;;;;;;;0.68;95.63;102565.94;5025933;28;20118;-82
2021/04/15 00:26:34;;;;;;;9.32;5.88;;;;;;;0.64;95.79;102566.13;5048924;28;20377;-80
2021/04/15 00:29:00;;;;;;;9.63;5.70;;;;;;;0.43;95.78;102581.84;5029154;28;20583;-82
2021/04/15 00:31:28;;;;;;;8.32;5.63;;;;;;;0.47;96.58;102566.72;5047411;28;20059;-80
2021/04/15 00:33:53;;;;;;;8.82;5.57;;;;;;;0.51;96.35;102564.84;5033663;28;20073;-81
2021/04/15 00:36:20;;;;;;;10.18;5.70;;;;;;;0.47;96.55;102565.88;5019854;28;20109;-83
2021/04/15 00:38:46;;;;;;;7.95;5.57;;;;;;;0.43;96.65;102563.34;5032198;28;20072;-80
2021/04/15 00:41:12;;;;;;;9.43;5.60;;;;;;;0.24;96.90;102567.56;5031221;28;20056;-80
2021/04/15 00:43:41;;;;;;;7.60;5.68;;;;;;;0.33;97.30;102569.88;5038136;28;20393;-82
2021/04/15 00:46:44;;;;;;;11.40;6.43;;;;;;;0.37;97.25;102565.34;5054501;28;20091;-81
2021/04/15 00:49:12;;;;;;;9.68;5.82;;;;;;;0.47;97.47;102560.59;5008088;28;20052;-78
2021/04/15 00:51:42;;;;;;;7.80;5.68;;;;;;;0.48;97.21;102551.75;5057442;28;20051;-83
2021/04/15 00:54:14;;;;;;;10.10;6.00;;;;;;;0.49;97.36;102549.06;5047899;28;20044;-81
2021/04/15 00:56:55;;;;;;;10.40;6.40;;;;;;;0.50;97.27;102550.78;5050188;28;20242;-80
2021/04/15 00:59:23;;;;;;;9.25;5.65;;;;;;;0.48;97.43;102552.59;5048077;28;20118;-81
2021/04/15 01:01:48;;;;;;;8.98;6.07;;;;;;;0.58;97.13;102543.44;5047276;28;20409;-79
2021/04/15 01:04:15;;;;;;;9.82;5.78;;;;;;;0.60;96.36;102546.84;5047310;28;20044;-82
2021/04/15 01:06:40;;;;;;;10.13;6.18;;;;;;;0.62;96.02;102546.81;5038180;28;20044;-80
2021/04/15 01:09:07;;;;;;;8.32;5.95;;;;;;;0.54;96.04;102547.09;5037005;28;20043;-80
2021/04/15 01:11:33;;;;;;;8.60;5.60;;;;;;;0.48;95.68;102547.31;5046878;28;20045;-83
2021/04/15 01:14:05;;;;;;;10.75;6.50;;;;;;;0.45;96.00;102543.00;5049560;28;20069;-78
2021/04/15 01:17:02;;;;;;;12.88;7.45;;;;;;;0.50;95.68;102545.50;5028801;28;20048;-80
2021/04/15 01:20:13;;;;;;;9.73;6.45;;;;;;;0.48;95.92;102542.03;5048166;28;20115;-82
2021/04/15 01:23:02;;;;;;;13.07;7.03;;;;;;;0.39;95.79;102545.00;5036730;28;20111;-82
2021/04/15 01:25:59;;;;;;;10.02;6.05;;;;;;;0.29;96.09;102544.50;5046659;28;20043;-82
2021/04/15 01:28:39;;;;;;;11.00;6.88;;;;;;;0.22;97.08;102551.75;5029037;28;20404;-81
2021/04/15 01:31:16;;;;;;;20.38;11.38;;;;;;;0.20;97.65;102548.34;5043298;28;20033;-79
2021/04/15 01:33:57;;;;;;;11.98;8.45;;;;;;;0.20;98.02;102548.34;5049960;28;20561;-79
2021/04/15 01:36:33;;;;;;;13.27;7.82;;;;;;;0.27;97.76;102542.81;5047905;28;20200;-81
2021/04/15 01:39:16;;;;;;;16.30;8.05;;;;;;;0.32;97.64;102546.16;5032350;28;20037;-82
2021/04/15 01:42:07;;;;;;;12.23;7.13;;;;;;;0.30;97.51;102542.72;4998658;28;20064;-81
2021/04/15 01:44:53;;;;;;;10.27;6.75;;;;;;;0.28;97.30;102534.84;5056263;28;20037;-81
2021/04/15 01:47:27;;;;;;;12.52;7.38;;;;;;;0.30;97.26;102526.88;5057834;28;21165;-80
2021/04/15 01:50:00;;;;;;;8.35;6.55;;;;;;;0.31;97.35;102541.78;5041834;28;20041;-79
2021/04/15 01:52:29;;;;;;;10.23;6.70;;;;;;;0.26;96.98;102538.44;5049010;28;20090;-82
2021/04/15 01:55:05;;;;;;;10.85;7.07;;;;;;;0.21;96.97;102544.75;5045773;28;20516;-80
2021/04/15 01:57:40;;;;;;;11.73;6.78;;;;;;;0.16;97.27;102548.47;5048970;28;20060;-79
2021/04/15 02:00:13;;;;;;;9.93;6.00;;;;;;;0.15;96.96;102539.69;5045552;28;20041;-82
2021/04/15 02:02:43;;;;;;;9.80;6.18;;;;;;;0.11;96.90;102543.34;5046563;28;20064;-78
2021/04/15 02:05:16;;;;;;;8.88;6.22;;;;;;;0.08;97.52;102545.25;5046763;28;20081;-80
2021/04/15 02:07:47;;;;;;;9.02;6.03;;;;;;;0.09;97.58;102544.34;5046384;28;20084;-79
2021/04/15 02:10:13;;;;;;;11.65;6.28;;;;;;;0.11;97.19;102539.84;5047902;28;20068;-78
2021/04/15 02:12:43;;;;;;;10.10;5.95;;;;;;;0.10;96.85;102551.34;5024804;28;20049;-81
2021/04/15 02:15:12;;;;;;;11.43;5.90;;;;;;;0.10;96.71;102546.06;5050891;28;20083;-81
2021/04/15 02:17:41;;;;;;;8.75;6.10;;;;;;;0.06;96.48;102545.31;5047210;28;20053;-80
2021/04/15 02:20:19;;;;;;;8.25;6.28;;;;;;;-0.10;96.86;102544.09;5055060;28;20041;-79
2021/04/15 02:22:48;;;;;;;9.07;6.28;;;;;;;-0.21;97.11;102554.16;5024265;28;20063;-81
2021/04/15 02:25:24;;;;;;;10.43;6.85;;;;;;;-0.17;97.62;102553.13;5030736;28;20063;-80
2021/04/15 02:28:07;;;;;;;11.30;7.00;;;;;;;-0.15;97.49;102551.31;5025228;28;20384;-80
2021/04/15 02:30:43;;;;;;;11.13;7.13;;;;;;;-0.17;97.63;102546.09;5035431;28;20248;-81
2021/04/15 02:33:17;;;;;;;14.18;7.25;;;;;;;-0.27;98.09;102560.50;5030301;28;20037;-79
2021/04/15 02:35:46;;;;;;;12.68;7.90;;;;;;;-0.29;98.51;102559.69;5057754;28;20507;-81
2021/04/15 02:38:12;;;;;;;14.52;7.50;;;;;;;-0.31;98.78;102562.41;5031421;28;20044;-80
2021/04/15 02:40:47;;;;;;;11.65;7.97;;;;;;;-0.28;99.10;102557.00;5050125;28;20052;-81
2021/04/15 02:43:25;;;;;;;11.68;7.53;;;;;;;-0.31;98.92;102557.13;5032223;28;20124;-78
2021/04/15 02:45:54;;;;;;;10.57;7.90;;;;;;;-0.29;99.42;102554.41;5050977;28;20043;-79
2021/04/15 02:48:28;;;;;;;13.10;8.23;;;;;;;-0.29;99.22;102559.69;5015734;28;20041;-81
2021/04/15 02:51:07;;;;;;;11.90;7.93;;;;;;;-0.30;99.67;102558.84;5032107;28;20037;-80
2021/04/15 02:53:37;;;;;;;;;;;;;;;-0.29;100.00;102565.84;5024874;28;20091;-78
2021/04/15 02:56:10;;;;;;;13.32;8.27;;;;;;;-0.38;99.61;102549.44;5049503;28;20019;-81
2021/04/15 02:58:43;;;;;;;10.13;7.97;;;;;;;-0.39;99.97;102553.88;5049016;28;20069;-77
2021/04/15 03:01:13;;;;;;;10.63;7.82;;;;;;;-0.39;100.00;102553.88;5011025;28;20044;-81
2021/04/15 03:03:42;;;;;;;11.55;8.43;;;;;;;-0.34;100.00;102554.59;5037489;28;20072;-77
2021/04/15 03:06:18;;;;;;;11.50;8.52;;;;;;;-0.31;99.73;102558.91;5031408;28;20127;-79
2021/04/15 03:08:46;;;;;;;12.80;8.15;;;;;;;-0.33;99.48;102548.38;5014820;28;20470;-81
2021/04/15 03:11:20;;;;;;;11.93;8.02;;;;;;;-0.35;99.99;102550.19;5049941;28;20111;-79
2021/04/15 03:14:08;;;;;;;13.18;8.80;;;;;;;-0.37;100.00;102557.31;5049049;28;20389;-79
2021/04/15 03:16:39;;;;;;;13.60;8.55;;;;;;;-0.39;100.00;102556.50;5008902;28;20041;-81
2021/04/15 03:19:15;;;;;;;12.65;8.88;;;;;;;-0.35;100.00;102552.84;5052261;28;20037;-80
2021/04/15 03:22:02;;;;;;;13.15;9.40;;;;;;;-0.31;100.00;102557.13;5017410;28;20061;-78
2021/04/15 03:24:42;;;;;;;11.35;8.55;;;;;;;-0.28;99.79;102561.44;5040201;28;20454;-78
2021/04/15 03:27:22;;;;;;;12.82;8.38;;;;;;;-0.27;100.00;102557.88;5043237;28;20037;-78
2021/04/15 03:30:19;;;;;;;13.27;8.38;;;;;;;-0.34;99.92;102551.09;5027854;28;20041;-79
2021/04/15 03:32:55;;;;;;;13.75;8.50;;;;;;;-0.31;99.59;102557.13;5005990;28;20049;-80
2021/04/15 03:35:46;;;;;;;11.85;8.00;;;;;;;-0.23;99.44;102554.25;5045820;28;20045;-77
2021/04/15 03:38:24;;;;;;;10.27;7.78;;;;;;;-0.28;98.71;102557.00;5026893;28;20057;-78
2021/04/15 03:40:56;;;;;;;14.57;8.65;;;;;;;-0.29;99.43;102563.22;5028757;28;20076;-81
2021/04/15 03:43:26;;;;;;;11.70;8.10;;;;;;;-0.25;99.32;102561.34;5028189;28;20147;-77
2021/04/15 03:45:54;;;;;;;12.23;8.85;;;;;;;-0.26;99.75;102560.47;5046540;28;20067;-80
2021/04/15 03:48:25;;;;;;;11.13;9.48;;;;;;;-0.26;100.00;102564.88;5028048;28;20385;-78
2021/04/15 03:50:59;;;;;;;16.58;9.55;;;;;;;-0.24;100.00;102566.53;5024880;28;20132;-76
2021/04/15 03:53:36;;;;;;;12.02;8.60;;;;;;;-0.18;99.87;102559.34;5042004;28;20037;-79
2021/04/15 03:56:05;;;;;;;13.02;9.55;;;;;;;-0.17;99.93;102558.41;5034918;28;20072;-79
2021/04/15 03:58:42;;;;;;;12.77;8.88;;;;;;;-0.12;99.93;102556.47;5020893;28;20048;-81
2021/04/15 04:01:17;;;;;;;12.45;8.07;;;;;;;-0.13;99.55;102557.41;5042464;28;20429;-79
2021/04/15 04:03:45;;;;;;;13.80;8.30;;;;;;;-0.09;99.38;102559.03;5029994;28;20401;-81
2021/04/15 04:06:19;;;;;;;10.95;7.82;;;;;;;-0.11;99.32;102558.22;5029776;28;20579;-80
2021/04/15 04:08:59;;;;;;;11.90;8.60;;;;;;;-0.11;99.20;102563.50;5025763;28;20045;-80
2021/04/15 04:11:31;;;;;;;11.88;7.72;;;;;;;-0.09;99.05;102559.03;5036871;28;20401;-80
2021/04/15 04:14:01;;;;;;;12.98;8.05;;;;;;;-0.14;99.59;102563.63;5052170;28;20044;-79
2021/04/15 04:16:39;;;;;;;14.32;8.82;;;;;;;-0.05;99.15;102558.03;5042734;28;20048;-80
2021/04/15 04:19:11;;;;;;;14.00;7.88;;;;;;;-0.09;99.12;102561.66;5014390;28;20508;-80
2021/04/15 04:21:39;;;;;;;13.90;8.93;;;;;;;-0.04;99.00;102565.00;5046616;28;20060;-79
2021/04/15 04:24:21;;;;;;;11.90;8.20;;;;;;;-0.06;98.50;102566.84;5026453;28;20037;-80
2021/04/15 04:26:56;;;;;;;12.32;8.10;;;;;;;-0.09;98.77;102569.56;5041366;28;20462;-77
2021/04/15 04:29:42;;;;;;;11.90;8.85;;;;;;;-0.12;98.73;102569.69;5043691;28;20038;-81
2021/04/15 04:32:11;;;;;;;15.48;9.02;;;;;;;-0.13;99.13;102565.34;5046908;28;20048;-78
2021/04/15 04:34:38;;;;;;;12.52;8.48;;;;;;;-0.16;99.32;102568.06;5050069;28;20485;-78
2021/04/15 04:37:05;;;;;;;12.68;8.98;;;;;;;-0.15;99.88;102569.78;5044255;28;20061;-80
2021/04/15 04:39:31;;;;;;;11.88;8.38;;;;;;;-0.12;99.35;102573.19;5027167;28;20056;-81
2021/04/15 04:42:15;;;;;;;11.20;8.27;;;;;;;-0.15;99.56;102582.97;5026455;28;20041;-79
2021/04/15 04:44:51;;;;;;;14.40;8.57;;;;;;;-0.12;99.37;102590.78;5009245;28;20398;-80
2021/04/15 04:47:36;;;;;;;12.05;8.73;;;;;;;-0.11;99.40;102590.75;5045121;28;20044;-79
2021/04/15 04:50:08;;;;;;;14.45;9.48;;;;;;;-0.16;99.38;102590.03;5046756;28;20044;-80
2021/04/15 04:52:34;;;;;;;15.38;9.07;;;;;;;-0.19;99.91;102592.78;5033884;28;20045;-78
2021/04/15 04:55:07;;;;;;;11.48;8.68;;;;;;;-0.18;99.87;102593.66;5028085;28;21284;-80
2021/04/15 04:57:41;;;;;;;13.43;9.50;;;;;;;-0.19;99.56;102595.44;5021891;28;20037;-78
2021/04/15 05:00:14;;;;;;;14.75;10.40;;;;;;;-0.20;99.95;102590.19;5039923;28;20125;-80
2021/04/15 05:02:40;;;;;;;14.00;10.70;;;;;;;-0.18;99.96;102589.22;5053803;28;20040;-80
2021/04/15 05:05:08;;;;;;;16.60;10.50;;;;;;;-0.20;100.00;102595.47;5026725;28;20044;-79
2021/04/15 05:07:36;;;;;;;15.18;10.98;;;;;;;-0.17;99.79;102595.34;5030360;28;20622;-80
2021/04/15 05:10:03;;;;;;;17.08;10.82;;;;;;;-0.14;99.63;102605.84;5039465;28;20044;-81
2021/04/15 05:12:34;;;;;;;12.48;9.50;;;;;;;-0.16;99.74;102605.03;5041178;28;20077;-81
2021/04/15 05:15:03;;;;;;;15.15;10.02;;;;;;;-0.12;99.88;102607.50;5012262;28;20044;-77
2021/04/15 05:17:38;;;;;;;14.70;10.25;;;;;;;-0.13;100.00;102610.19;5038675;28;20040;-77
2021/04/15 05:20:16;;;;;;;14.57;10.40;;;;;;;-0.07;100.00;102613.47;5048406;28;20048;-81
2021/04/15 05:23:23;;;;;;;16.58;10.68;;;;;;;0.00;100.00;102616.81;5025737;28;20110;-79
2021/04/15 05:26:12;;;;;;;15.63;10.63;;;;;;;-0.01;100.00;102610.63;4971631;28;20034;-78
2021/04/15 05:28:39;;;;;;;16.30;10.57;;;;;;;0.06;100.00;102619.22;5031169;28;20052;-78
2021/04/15 05:31:11;;;;;;;18.13;10.95;;;;;;;0.09;100.00;102619.13;5043239;28;20280;-81
2021/04/15 05:33:37;;;;;;;15.70;11.32;;;;;;;0.17;99.48;102627.66;5014324;28;20053;-80
2021/04/15 05:36:12;;;;;;;15.80;10.82;;;;;;;0.20;99.56;102627.53;5046291;28;20029;-79
2021/04/15 05:38:44;;;;;;;19.50;11.52;;;;;;;0.28;99.97;102623.75;5050899;28;21790;-80
2021/04/15 05:41:22;;;;;;;14.10;10.43;;;;;;;0.32;99.62;102622.75;5028111;28;20119;-78
2021/04/15 05:43:50;;;;;;;14.23;10.52;;;;;;;0.36;99.15;102633.16;5048965;28;20086;-81
2021/04/15 05:46:23;;;;;;;16.65;10.23;;;;;;;0.41;99.21;102622.44;5048448;28;20041;-81
2021/04/15 05:48:55;;;;;;;14.68;10.70;;;;;;;0.48;99.49;102638.91;5013609;28;20148;-81
2021/04/15 05:51:27;;;;;;;13.50;10.02;;;;;;;0.55;99.31;102628.09;5025619;28;20041;-80
2021/04/15 05:53:56;;;;;;;15.63;10.38;;;;;;;0.62;99.34;102626.06;5037685;28;20049;-78
2021/04/15 05:56:38;;;;;;;13.73;10.65;;;;;;;0.71;99.46;102624.88;5047946;28;20028;-82
2021/04/15 05:59:20;;;;;;;19.80;12.32;;;;;;;0.75;100.00;102627.38;5025926;28;20496;-77
2021/04/15 06:01:51;;;;;;;22.30;13.55;;;;;;;0.84;100.00;102627.03;4984506;28;20397;-80
2021/04/15 06:04:35;;;;;;;19.98;11.35;;;;;;;0.94;100.00;102627.53;5028581;28;20075;-82
2021/04/15 06:07:04;;;;;;;18.48;12.63;;;;;;;1.05;98.96;102622.72;5048423;28;20136;-80
2021/04/15 06:09:30;;;;;;;21.05;12.80;;;;;;;1.17;98.47;102631.97;5027044;28;20029;-79
2021/04/15 06:12:09;;;;;;;20.73;14.80;;;;;;;1.27;99.28;102637.78;5047888;28;20039;-80
2021/04/15 06:14:51;;;;;;;19.05;13.63;;;;;;;1.39;99.36;102631.13;5055757;28;20499;-79
2021/04/15 06:17:44;;;;;;;21.25;12.48;;;;;;;1.52;98.25;102632.38;5041845;28;20125;-77
2021/04/15 06:20:36;;;;;;;18.60;12.13;;;;;;;1.60;98.48;102632.91;5030476;28;20132;-82
2021/04/15 06:23:14;;;;;;;18.05;12.43;;;;;;;1.70;97.96;102636.94;5033078;28;20048;-80
2021/04/15 06:25:45;;;;;;;15.07;8.90;;;;;;;2.01;99.00;102636.56;5058812;28;20392;-80
2021/04/15 06:28:19;;;;;;;13.55;9.40;;;;;;;2.08;97.26;102638.94;5044361;28;20700;-80
2021/04/15 06:31:07;;;;;;;14.60;8.98;;;;;;;2.15;97.36;102637.75;5050468;28;20049;-82
2021/04/15 06:33:34;;;;;;;16.55;9.52;;;;;;;2.20;97.30;102644.56;5037912;28;20070;-80
2021/04/15 06:36:04;;;;;;;18.00;10.50;;;;;;;2.28;96.92;102648.69;5027512;28;20102;-78
2021/04/15 06:38:47;;;;;;;16.20;10.35;;;;;;;2.36;97.30;102641.25;5039561;28;20049;-77
2021/04/15 06:41:19;;;;;;;14.68;10.23;;;;;;;2.43;97.01;102642.72;5023697;28;20083;-78
2021/04/15 06:43:54;;;;;;;14.68;9.43;;;;;;;2.54;97.09;102647.56;5040803;28;20038;-81
2021/04/15 06:46:38;;;;;;;16.08;9.38;;;;;;;2.61;96.61;102638.41;5025141;28;20118;-83
2021/04/15 06:49:26;;;;;;;13.68;8.93;;;;;;;2.67;96.38;102635.47;5044670;28;20325;-82
2021/04/15 06:52:29;;;;;;;13.47;8.23;;;;;;;2.72;96.91;102633.50;5010580;28;20173;-79
2021/04/15 06:54:57;;;;;;;15.27;8.20;;;;;;;2.75;97.33;102641.31;5009576;28;20260;-82
2021/04/15 06:57:45;;;;;;;14.57;8.80;;;;;;;2.83;95.96;102641.81;5027829;28;20103;-81
2021/04/15 07:00:37;;;;;;;14.63;8.73;;;;;;;2.94;97.48;102641.34;5026660;28;20640;-82
2021/04/15 07:03:14;;;;;;;15.13;9.88;;;;;;;3.01;96.92;102631.31;5002712;28;20044;-80
2021/04/15 07:05:58;;;;;;;11.98;9.07;;;;;;;3.07;96.45;102637.19;5018683;28;20095;-80
2021/04/15 07:08:35;;;;;;;14.85;8.85;;;;;;;3.16;96.79;102642.09;5025665;28;20033;-79
2021/04/15 07:11:30;;;;;;;14.38;8.68;;;;;;;3.27;96.10;102636.25;5022656;28;20290;-79
2021/04/15 07:14:15;;;;;;;13.70;8.07;;;;;;;3.31;95.98;102637.84;5038605;28;20037;-81
2021/04/15 07:16:49;;;;;;;11.70;8.40;;;;;;;3.41;96.57;102637.41;5036880;28;20052;-83
2021/04/15 07:19:49;;;;;;;13.63;7.70;;;;;;;3.48;95.13;102641.47;5040512;28;20109;-82
2021/04/15 07:22:26;;;;;;;10.95;6.72;;;;;;;3.48;94.42;102634.41;5041353;28;20547;-79
2021/04/15 07:25:10;;;;;;;9.82;6.90;;;;;;;3.64;95.34;102641.63;5043915;28;20033;-80
2021/04/15 07:28:09;;;;;;;13.77;8.52;;;;;;;3.67;94.26;102641.47;5040918;28;20029;-82
2021/04/15 07:30:58;;;;;;;10.18;7.32;;;;;;;3.75;93.71;102642.81;5041341;28;20389;-79
2021/04/15 07:33:46;;;;;;;12.65;7.63;;;;;;;3.86;91.99;102644.09;5034169;28;20486;-80
2021/04/15 07:36:58;;;;;;;11.77;7.60;;;;;;;3.96;91.23;102648.88;5047523;28;20056;-81
2021/04/15 07:39:50;;;;;;;11.68;7.03;;;;;;;4.13;91.64;102653.34;4944266;28;20191;-79
2021/04/15 07:42:34;;;;;;;13.25;8.18;;;;;;;4.35;91.21;102647.81;4942279;28;20408;-81
2021/04/15 07:45:20;;;;;;;12.20;7.40;;;;;;;4.51;91.41;102655.84;5026081;28;20119;-80
2021/04/15 07:48:22;;;;;;;13.40;6.90;;;;;;;4.59;90.06;102651.00;5042475;28;20048;-81
2021/04/15 07:51:19;;;;;;;10.98;6.75;;;;;;;4.72;87.81;102656.53;5013108;28;20033;-81
2021/04/15 07:54:09;;;;;;;11.48;6.00;;;;;;;4.78;87.24;102663.34;5020882;28;20075;-82
2021/04/15 07:57:05;;;;;;;9.95;5.97;;;;;;;4.85;86.38;102660.25;5041490;28;20041;-79
2021/04/15 07:59:57;;;;;;;13.52;7.05;;;;;;;5.00;87.00;102655.91;5025749;28;20052;-81
2021/04/15 08:02:38;;;;;;;10.77;7.00;;;;;;;5.03;84.63;102655.75;5041369;28;20045;-82
2021/04/15 08:05:33;;;;;;;11.18;7.55;;;;;;;4.94;84.93;102664.22;5053925;28;20041;-82
2021/04/15 08:08:23;;;;;;;10.80;7.05;;;;;;;5.07;85.32;102662.63;5015934;28;20045;-82
2021/04/15 08:11:10;;;;;;;9.65;6.43;;;;;;;5.22;83.46;102668.91;5016675;28;20092;-82
2021/04/15 08:14:06;;;;;;;12.38;6.85;;;;;;;5.16;83.26;102666.59;5023009;28;20068;-79
2021/04/15 08:16:56;;;;;;;12.05;6.15;;;;;;;5.27;83.67;102663.34;5043597;28;20454;-82
2021/04/15 08:19:35;;;;;;;9.68;5.38;;;;;;;5.53;81.86;102661.91;5041220;28;20041;-81
2021/04/15 08:22:43;;;;;;;9.00;5.22;;;;;;;5.63;81.56;102663.94;5028958;28;20087;-80
2021/04/15 08:25:16;;;;;;;9.27;5.80;;;;;;;5.79;80.65;102671.09;5010632;28;20410;-79
2021/04/15 08:28:09;;;;;;;8.52;5.18;;;;;;;5.82;80.35;102666.44;5017796;28;20552;-80
2021/04/15 08:30:42;;;;;;;10.02;5.15;;;;;;;6.03;81.61;102683.03;5039690;28;20058;-83
2021/04/15 08:33:10;;;;;;;7.07;5.07;;;;;;;5.84;79.41;102669.88;5041476;28;20528;-79
2021/04/15 08:36:13;;;;;;;6.93;4.40;;;;;;;5.66;79.55;102681.56;5039957;28;20049;-83
2021/04/15 08:38:55;;;;;;;9.45;4.93;;;;;;;5.54;79.35;102685.78;5037618;28;20409;-80
2021/04/15 08:41:46;;;;;;;9.95;5.00;;;;;;;5.58;81.15;102687.34;5039447;28;20132;-83
2021/04/15 08:44:11;;;;;;;8.55;4.15;;;;;;;5.72;78.87;102688.34;5037801;28;20068;-79
2021/04/15 08:46:48;;;;;;;7.00;3.85;;;;;;;5.81;78.57;102687.81;5028980;28;20061;-83
2021/04/15 08:49:14;;;;;;;6.55;2.95;;;;;;;5.93;76.09;102683.59;5040247;28;20043;-78
2021/04/15 08:51:47;;;;;;;5.88;2.78;;;;;;;5.90;74.28;102687.34;5043177;28;20037;-84
2021/04/15 08:54:30;;;;;;;6.20;3.95;;;;;;;6.02;75.60;102685.78;5033487;28;20094;-80
2021/04/15 08:57:00;;;;;;;7.35;3.97;;;;;;;6.27;76.17;102683.44;5031433;28;20493;-81
2021/04/15 08:59:41;;;;;;;6.97;3.50;;;;;;;6.51;74.43;102686.44;5046840;28;20037;-80
2021/04/15 09:02:30;;;;;;;6.68;3.92;;;;;;;6.54;72.18;102683.59;5025194;28;20053;-80
2021/04/15 09:05:35;;;;;;;9.90;4.03;;;;;;;6.79;74.02;102684.78;5024972;28;20033;-83
2021/04/15 09:08:16;;;;;;;8.27;4.00;;;;;;;6.83;72.16;102680.97;5030494;28;20465;-80
2021/04/15 09:10:49;;;;;;;6.40;4.03;;;;;;;7.00;73.72;102677.25;5016203;28;20545;-79
2021/04/15 09:13:30;;;;;;;6.50;3.85;;;;;;;6.98;71.41;102685.34;5045677;28;20069;-80
2021/04/15 09:16:15;;;;;;;6.10;3.58;;;;;;;7.13;70.07;102683.53;5014225;28;20506;-80
2021/04/15 09:19:00;;;;;;;7.07;4.22;;;;;;;7.27;70.57;102679.16;5036935;28;20052;-79
2021/04/15 09:21:37;;;;;;;8.55;4.20;;;;;;;7.08;70.54;102685.66;5040619;28;20041;-83
2021/04/15 09:24:28;;;;;;;6.97;4.05;;;;;;;7.18;70.87;102686.78;5041724;28;20037;-83
2021/04/15 09:27:07;;;;;;;6.22;3.60;;;;;;;7.22;69.34;102682.09;4996017;28;20045;-81
2021/04/15 09:29:45;;;;;;;6.40;3.92;;;;;;;7.36;69.11;102689.25;5047040;28;20037;-81
2021/04/15 09:32:18;;;;;;;5.40;3.58;;;;;;;7.24;67.80;102685.53;5038227;28;20087;-81
2021/04/15 09:34:56;;;;;;;7.20;4.38;;;;;;;7.22;69.10;102682.97;5047602;28;20037;-82
2021/04/15 09:37:58;;;;;;;7.20;4.38;;;;;;;7.22;68.99;102682.09;5035089;28;20098;-80
2021/04/15 09:40:39;;;;;;;9.68;5.88;;;;;;;7.10;67.61;102677.53;5025855;28;20041;-83
2021/04/15 09:43:18;;;;;;;5.60;4.35;;;;;;;7.24;67.52;102674.84;5044108;28;20128;-82
2021/04/15 09:46:02;;;;;;;;;;;;;;;7.27;67.02;102674.66;5039559;28;20033;-82
2021/04/15 09:48:48;;;;;;;8.60;5.00;;;;;;;7.46;70.21;102672.53;5043500;28;19913;-82
2021/04/15 09:52:00;;;;;;;9.07;4.53;;;;;;;7.75;68.41;102677.81;5037825;28;20084;-79
2021/04/15 09:54:41;;;;;;;7.07;4.25;;;;;;;7.80;64.54;102667.69;5038478;28;20049;-81
2021/04/15 09:57:45;;;;;;;5.43;4.40;;;;;;;7.69;66.87;102675.56;5045404;28;20041;-80
2021/04/15 10:00:16;;;;;;;7.30;4.35;;;;;;;7.81;65.78;102673.91;4965889;28;20050;-84
2021/04/15 10:02:54;;;;;;;6.95;4.63;;;;;;;7.97;67.28;102674.63;4976373;28;20571;-80
2021/04/15 10:05:35;;;;;;;7.03;4.45;;;;;;;8.02;65.05;102666.25;5003054;28;20037;-79
2021/04/15 10:08:11;;;;;;;6.32;4.32;;;;;;;8.11;66.79;102666.53;5033416;28;20042;-81
2021/04/15 10:10:47;;;;;;;7.82;4.80;;;;;;;7.89;64.17;102661.75;5042547;28;20041;-84
2021/04/15 10:13:31;;;;;;;6.63;5.15;;;;;;;7.77;67.44;102667.91;5024673;28;20111;-82
2021/04/15 10:16:21;;;;;;;5.95;3.28;;;;;;;8.00;61.18;102665.50;4991900;28;20309;-82
2021/04/15 10:19:31;;;;;;;3.97;3.25;;;;;;;8.25;64.41;102662.91;5011023;28;20037;-82
2021/04/15 10:22:06;;;;;;;6.82;2.88;;;;;;;8.33;64.44;102665.91;5029277;28;20049;-81
2021/04/15 10:24:45;;;;;;;7.15;2.63;;;;;;;8.51;59.55;102660.31;5049126;28;20041;-80
2021/04/15 10:27:39;;;;;;;;;;;;;;;8.40;59.97;102661.06;5036110;28;20091;-81
2021/04/15 10:30:29;;;;;;;3.63;2.60;;;;;;;8.45;61.23;102664.25;4974178;28;19914;-80
2021/04/15 10:33:11;;;;;;;5.57;3.17;;;;;;;8.38;60.81;102662.09;5025886;28;20060;-82
2021/04/15 10:35:54;;;;;;;7.00;3.65;;;;;;;8.22;64.51;102662.25;5046317;28;20048;-82
2021/04/15 10:38:26;;;;;;;4.60;3.10;;;;;;;8.08;61.89;102655.16;5020577;28;20422;-79
2021/04/15 10:40:55;;;;;;;5.43;3.40;;;;;;;8.05;64.69;102655.38;5011114;28;20430;-81
2021/04/15 10:43:29;;;;;;;6.22;3.50;;;;;;;8.28;62.36;102645.78;5024626;28;20486;-79
2021/04/15 10:46:05;;;;;;;4.60;2.92;;;;;;;8.45;63.45;102652.72;5045672;28;20587;-83
2021/04/15 10:48:33;;;;;;;5.57;2.92;;;;;;;8.33;62.62;102649.88;5026375;28;20068;-82
2021/04/15 10:51:12;;;;;;;5.20;2.75;;;;;;;8.24;64.58;102653.19;5045427;28;20041;-80
2021/04/15 10:53:53;;;;;;;4.97;2.90;;;;;;;7.93;62.68;102649.03;5041737;28;20037;-83
2021/04/15 10:56:25;;;;;;;5.85;3.03;;;;;;;8.01;64.48;102651.19;5037453;28;20034;-79
2021/04/15 10:59:01;;;;;;;5.63;2.72;;;;;;;8.23;63.94;102643.44;5023766;28;20128;-81
2021/04/15 11:01:29;;;;;;;4.10;2.42;;;;;;;8.49;64.21;102640.84;5039256;28;20045;-81
2021/04/15 11:03:59;;;;;;;6.07;2.63;;;;;;;8.75;63.13;102644.38;5025727;28;20044;-81
2021/04/15 11:06:36;;;;;;;5.82;2.65;;;;;;;8.97;63.84;102636.53;5021105;28;20098;-83
2021/04/15 11:09:35;;;;;;;3.65;2.50;;;;;;;9.04;60.78;102635.16;5027616;28;20045;-82
2021/04/15 11:12:20;;;;;;;4.70;2.00;;;;;;;9.12;58.87;102639.09;5015683;28;20070;-81
2021/04/15 11:14:47;;;;;;;4.60;2.20;;;;;;;9.27;60.77;102629.97;5010803;28;20041;-83
2021/04/15 11:17:18;;;;;;;3.95;1.90;;;;;;;9.41;59.86;102627.16;5042429;28;20033;-82
2021/04/15 11:19:49;;;;;;;6.72;2.65;;;;;;;9.46;58.22;102626.78;5033703;28;20178;-81
2021/04/15 11:22:21;;;;;;;5.97;2.30;;;;;;;9.29;58.25;102619.13;4991868;28;20044;-81
2021/04/15 11:24:47;;;;;;;4.53;2.50;;;;;;;9.09;60.01;102617.88;5044101;28;20085;-80
2021/04/15 11:27:33;;;;;;;4.72;2.22;;;;;;;9.05;58.18;102619.94;5040017;28;20041;-81
2021/04/15 11:29:58;;;;;;;5.10;2.10;;;;;;;9.41;59.04;102610.22;4999915;28;20220;-80
2021/04/15 11:32:43;;;;;;;4.70;2.35;;;;;;;9.65;57.02;102619.09;5039904;28;20375;-80
2021/04/15 11:35:08;;;;;;;3.40;1.95;;;;;;;9.54;56.27;102616.38;5039295;28;20044;-84
2021/04/15 11:37:39;;;;;;;5.88;2.45;;;;;;;9.29;57.43;102621.81;5025735;28;20045;-82
2021/04/15 11:40:35;;;;;;;4.47;2.28;;;;;;;9.12;55.76;102618.53;4996249;28;20041;-83
2021/04/15 11:43:18;;;;;;;6.22;2.60;;;;;;;9.02;56.84;102612.97;4985721;28;20520;-82
2021/04/15 11:45:44;;;;;;;4.65;2.70;;;;;;;8.91;60.57;102604.84;5024003;28;20118;-82
2021/04/15 11:48:23;;;;;;;5.82;2.80;;;;;;;8.82;60.37;102603.69;5028413;28;20758;-80
2021/04/15 11:51:18;;;;;;;3.30;2.17;;;;;;;8.78;59.77;102596.84;5043503;28;20823;-81
2021/04/15 11:53:48;;;;;;;5.47;2.58;;;;;;;8.90;58.18;102604.97;5006670;28;20048;-84
2021/04/15 11:56:16;;;;;;;4.70;2.53;;;;;;;9.03;58.78;102603.09;5031722;28;20042;-82
2021/04/15 11:58:43;;;;;;;4.72;2.63;;;;;;;9.29;58.78;102600.38;5044888;28;20044;-82
2021/04/15 12:01:08;;;;;;;5.90;2.88;;;;;;;9.74;60.98;102592.59;5042374;28;20385;-81
2021/04/15 12:03:34;;;;;;;6.20;2.50;;;;;;;10.05;56.79;102607.22;5021061;28;20482;-82
2021/04/15 12:06:10;;;;;;;5.28;2.95;;;;;;;9.77;54.71;102592.38;5011457;28;20374;-82
2021/04/15 12:08:38;;;;;;;5.32;2.58;;;;;;;9.52;57.29;102596.00;5028803;28;20512;-82
2021/04/15 12:11:22;;;;;;;4.20;2.63;;;;;;;9.29;55.74;102595.00;5031449;28;20102;-80
2021/04/15 12:13:50;;;;;;;5.43;2.70;;;;;;;9.23;58.46;102594.50;5035152;28;20143;-79
2021/04/15 12:16:26;;;;;;;4.15;2.53;;;;;;;9.36;58.20;102596.28;5054912;28;20098;-84